CheckWX is a tool to help pilots better visualize weather data.  It is not intended as a substitute for an official pre-flight weather briefing.

07:28:25 UTC

KEGI TAF
Duke Field Airport
Crestview, Florida, USA
TAF AMD KEGI 200600Z 2006/2107 24006KT 9999 FEW030 SCT200 QNH3005INS BECMG 2014/2015 22009KT 9999 VCTS SCT030CB SCT150 QNH3007INS TEMPO 2016/2022 21012G20KT 4800 -TSRA BKN025CB BECMG 2021/2022 16009KT 6000 -SHRA BKN025 BKN150 QNH3003INS BECMG 2103/2104 VRB06KT 9999 NSW BKN025 BKN150 QNH3005INS TX32/2021Z TN22/2011Z LAST NO AMDS AFT 2006 NEXT 2009

Aug-20@
06:00 UTC

Aug-20 @ 06:00 UTC

Aug-20@
14:00 UTC

Aug-20 @ 14:00 UTC

TAF AMD KEGI 200600Z 2006/2107 24006KT 9999 FEW030 SCT200 QNH3005INS
Wind
  • 240° at 6 KTS
Cloud Levels
  • Few at 3,000' AGL
  • Scattered at 20,000' AGL

Aug-20@
14:00 UTC

Aug-20 @ 14:00 UTC

Aug-20@
21:00 UTC

Aug-20 @ 21:00 UTC

BECMG 2014/2015 22009KT 9999 VCTS SCT030CB SCT150 QNH3007INS

Becoming

Becoming Conditions expected by Tue, Aug 20, 2019 @ 15:00 UTC

Wind
  • 220° at 9 KTS
Conditions
Area Thunderstorm
Cloud Levels
  • Scattered at 3,000' AGL
  • Scattered at 15,000' AGL

Aug-20@
16:00 UTC

Aug-20 @ 16:00 UTC

Aug-20@
22:00 UTC

Aug-20 @ 22:00 UTC

TEMPO 2016/2022 21012G20KT 4800 -TSRA BKN025CB

Temporary

Temporary Changes expected for less than half the time period

Wind
  • 210° at 12 KTS
  • {Gusting to 20 KTS
Conditions
Light Thunderstorm, Light Rain
Cloud Levels
  • Broken at 2,500' AGL

Aug-20@
21:00 UTC

Aug-20 @ 21:00 UTC

Aug-21@
03:00 UTC

Aug-21 @ 03:00 UTC

BECMG 2021/2022 16009KT 6000 -SHRA BKN025 BKN150 QNH3003INS

Becoming

Becoming Conditions expected by Tue, Aug 20, 2019 @ 22:00 UTC

Wind
  • 160° at 9 KTS
Conditions
Light Rain
Cloud Levels
  • Broken at 2,500' AGL
  • Broken at 15,000' AGL

Aug-21@
03:00 UTC

Aug-21 @ 03:00 UTC

Aug-21@
07:00 UTC

Aug-21 @ 07:00 UTC

BECMG 2103/2104 VRB06KT 9999 NSW BKN025 BKN150 QNH3005INS TX32/2021Z TN22/2011Z LAST NO AMDS AFT 2006 NEXT 2009

Becoming

Becoming Conditions expected by Wed, Aug 21, 2019 @ 04:00 UTC

Wind
  • Variable at 6 KTS
Conditions
No significant weather
Cloud Levels
  • Broken at 2,500' AGL
  • Broken at 15,000' AGL